Time;durP1;ratioP1;P1;durP2;ratioP2;P2;SDS_P1;SDS_P2;PMS_P1;PMS_P2;Temp;Humidity;BMP_temperature;BMP_pressure;BME280_temperature;BME280_humidity;BME280_pressure;Samples;Min_cycle;Max_cycle;Signal;HPM_P1;HPM_P2
2021/07/19 00:00:12;;;;;;;4.20;3.80;;;;;;;24.25;52.76;99597.94;4949808;28;20481;-81
2021/07/19 00:02:40;;;;;;;7.28;4.40;;;;;;;24.08;53.00;99586.63;4974671;28;20079;-81
2021/07/19 00:05:09;;;;;;;4.78;4.30;;;;;;;23.91;53.24;99591.22;4977603;28;20073;-82
2021/07/19 00:07:36;;;;;;;6.68;4.20;;;;;;;24.02;52.85;99585.50;4975496;28;20538;-82
2021/07/19 00:10:05;;;;;;;7.68;5.03;;;;;;;24.06;53.23;99591.28;4962176;28;20576;-82
2021/07/19 00:12:33;;;;;;;4.60;4.20;;;;;;;23.99;53.04;99593.00;4971832;28;20593;-82
2021/07/19 00:15:00;;;;;;;5.22;4.60;;;;;;;23.82;53.55;99597.63;4971837;28;20105;-82
2021/07/19 00:17:27;;;;;;;4.30;3.90;;;;;;;23.85;52.87;99591.94;4975567;28;20046;-81
2021/07/19 00:19:59;;;;;;;5.78;4.25;;;;;;;23.82;52.76;99599.47;4976065;28;20047;-81
2021/07/19 00:22:25;;;;;;;5.15;4.50;;;;;;;24.00;52.10;99608.78;4918914;29;20146;-76
2021/07/19 00:24:52;;;;;;;7.97;4.57;;;;;;;24.18;53.00;99613.81;4904273;29;20039;-76
2021/07/19 00:27:19;;;;;;;7.72;4.63;;;;;;;24.21;53.34;99609.94;4901682;29;20048;-76
2021/07/19 00:29:46;;;;;;;5.32;4.05;;;;;;;23.78;54.16;99606.97;4920709;29;20048;-76
2021/07/19 00:32:13;;;;;;;5.32;4.47;;;;;;;23.50;55.41;99606.63;4901593;29;20047;-76
2021/07/19 00:34:40;;;;;;;4.95;4.18;;;;;;;23.40;55.90;99606.84;4901786;29;20050;-76
2021/07/19 00:37:07;;;;;;;5.88;4.63;;;;;;;23.35;56.20;99601.22;4918703;29;20055;-77
2021/07/19 00:39:34;;;;;;;9.40;4.65;;;;;;;23.17;57.09;99608.59;4918961;29;20044;-76
2021/07/19 00:42:01;;;;;;;17.90;5.13;;;;;;;22.94;57.10;99613.84;4918542;29;20052;-76
2021/07/19 00:44:29;;;;;;;5.75;4.97;;;;;;;23.04;56.73;99609.16;4901816;29;20040;-77
2021/07/19 00:46:55;;;;;;;6.53;4.22;;;;;;;22.88;57.69;99610.06;4901260;29;20491;-77
2021/07/19 00:49:24;;;;;;;8.13;4.10;;;;;;;23.11;56.99;99617.28;4919215;29;20107;-76
2021/07/19 00:51:54;;;;;;;5.55;4.45;;;;;;;22.84;58.13;99624.66;4901423;29;20499;-77
2021/07/19 00:54:24;;;;;;;10.80;5.07;;;;;;;22.90;58.02;99624.00;4919033;29;20447;-77
2021/07/19 00:56:55;;;;;;;5.78;4.80;;;;;;;22.96;58.64;99633.97;4901573;29;20051;-75
2021/07/19 00:59:24;;;;;;;9.00;5.47;;;;;;;22.94;59.77;99627.97;4918147;29;20052;-75
2021/07/19 01:01:55;;;;;;;8.60;4.90;;;;;;;22.82;60.23;99637.28;4901688;29;20369;-74
2021/07/19 01:04:28;;;;;;;6.68;5.75;;;;;;;22.94;59.61;99635.94;4901325;29;20044;-76
2021/07/19 01:06:59;;;;;;;9.90;6.18;;;;;;;22.84;60.52;99629.97;4918521;29;20131;-76
2021/07/19 01:09:31;;;;;;;11.82;6.63;;;;;;;22.97;59.87;99624.97;4918003;29;20044;-75
2021/07/19 01:11:59;;;;;;;10.70;6.07;;;;;;;22.95;59.83;99629.63;4918512;29;20049;-75
2021/07/19 01:14:28;;;;;;;7.03;5.65;;;;;;;22.93;59.51;99631.63;4901096;29;20045;-77
2021/07/19 01:16:55;;;;;;;7.57;5.03;;;;;;;22.93;58.58;99628.97;4918378;29;20044;-76
2021/07/19 01:19:29;;;;;;;7.32;5.68;;;;;;;23.03;58.31;99627.97;4900999;29;20051;-76
2021/07/19 01:21:57;;;;;;;5.40;4.90;;;;;;;22.98;58.41;99642.59;4901039;29;20104;-76
2021/07/19 01:25:03;;;;;;;5.28;4.70;;;;;;;22.81;59.22;99635.63;4917849;29;20092;-76
2021/07/19 01:27:45;;;;;;;4.97;4.47;;;;;;;22.60;59.79;99649.47;4901195;29;20052;-75
2021/07/19 01:30:12;;;;;;;5.47;4.95;;;;;;;22.78;58.79;99640.44;4900738;29;20233;-75
2021/07/19 01:32:43;;;;;;;5.95;5.45;;;;;;;23.10;59.20;99637.72;4917528;29;20059;-75
2021/07/19 01:35:13;;;;;;;6.40;5.80;;;;;;;23.12;58.64;99640.22;4900857;29;20044;-74
2021/07/19 01:37:44;;;;;;;6.88;5.90;;;;;;;22.96;59.60;99649.91;4900583;29;20079;-74
2021/07/19 01:40:18;;;;;;;7.35;6.03;;;;;;;22.65;62.01;99646.28;4900797;29;20040;-74
2021/07/19 01:42:47;;;;;;;9.38;6.70;;;;;;;22.56;62.81;99642.00;4900733;29;20040;-74
2021/07/19 01:45:15;;;;;;;7.45;6.75;;;;;;;22.53;63.19;99655.59;4901072;29;20044;-74
2021/07/19 01:47:46;;;;;;;32.95;8.18;;;;;;;22.49;63.03;99650.63;4900984;29;20044;-74
2021/07/19 01:50:14;;;;;;;7.85;6.72;;;;;;;22.51;63.04;99649.63;4917443;29;20404;-74
2021/07/19 01:53:01;;;;;;;5.07;4.60;;;;;;;22.38;61.63;99647.50;4918005;29;20055;-75
2021/07/19 01:55:33;;;;;;;5.45;4.95;;;;;;;22.45;60.60;99645.81;4900723;29;20051;-75
2021/07/19 01:58:03;;;;;;;7.70;5.50;;;;;;;22.50;60.67;99640.84;4900240;29;20111;-75
2021/07/19 02:00:37;;;;;;;6.30;5.57;;;;;;;22.49;60.33;99634.69;4900587;29;20048;-75
2021/07/19 02:03:09;;;;;;;4.85;4.35;;;;;;;22.19;61.64;99635.38;4900796;29;20071;-73
2021/07/19 02:05:44;;;;;;;4.97;4.47;;;;;;;22.06;61.71;99646.47;4900661;29;20040;-74
2021/07/19 02:08:16;;;;;;;7.63;5.25;;;;;;;22.02;61.86;99641.66;4899838;29;20130;-76
2021/07/19 02:11:05;;;;;;;6.40;4.78;;;;;;;21.95;62.05;99650.28;4916825;29;20112;-76
2021/07/19 02:13:37;;;;;;;5.65;4.80;;;;;;;22.04;62.32;99645.78;4900155;29;20072;-74
2021/07/19 02:16:05;;;;;;;9.80;5.32;;;;;;;22.11;62.18;99643.34;4900396;29;20044;-77
2021/07/19 02:18:37;;;;;;;6.53;5.55;;;;;;;22.01;62.23;99647.97;4900500;29;20115;-77
2021/07/19 02:21:04;;;;;;;5.53;5.03;;;;;;;22.01;62.25;99655.91;4899683;29;20112;-77
2021/07/19 02:23:40;;;;;;;5.68;5.10;;;;;;;22.12;61.81;99645.84;4900329;29;20051;-77
2021/07/19 02:26:27;;;;;;;8.45;4.13;;;;;;;22.15;61.55;99657.94;4893961;29;20096;-77
2021/07/19 02:28:55;;;;;;;6.30;4.85;;;;;;;22.14;61.75;99656.28;4881347;29;20071;-77
2021/07/19 02:31:23;;;;;;;5.60;4.70;;;;;;;22.09;61.90;99658.56;4896509;29;20105;-77
2021/07/19 02:33:51;;;;;;;11.02;4.97;;;;;;;22.27;61.33;99659.28;4881196;29;20044;-77
2021/07/19 02:36:24;;;;;;;5.78;4.97;;;;;;;22.12;61.81;99676.84;4881032;29;20056;-77
2021/07/19 02:38:55;;;;;;;6.10;5.50;;;;;;;22.11;61.67;99669.91;4897993;29;20067;-77
2021/07/19 02:41:26;;;;;;;5.70;5.03;;;;;;;22.22;61.19;99667.75;4897996;29;20044;-75
2021/07/19 02:44:01;;;;;;;7.38;4.72;;;;;;;22.35;60.74;99667.22;4897968;29;20522;-76
2021/07/19 02:46:44;;;;;;;5.28;4.80;;;;;;;22.38;60.71;99666.91;4896478;29;20496;-77
2021/07/19 02:49:12;;;;;;;5.65;5.07;;;;;;;22.37;60.51;99665.25;4910427;29;20559;-75
2021/07/19 02:51:42;;;;;;;6.63;4.93;;;;;;;22.53;59.55;99664.41;4899381;29;20074;-76
2021/07/19 02:54:17;;;;;;;5.65;4.95;;;;;;;22.39;60.78;99665.09;4899700;29;20048;-75
2021/07/19 02:56:46;;;;;;;7.60;4.70;;;;;;;22.34;61.12;99665.56;4916606;29;20048;-75
2021/07/19 02:59:14;;;;;;;5.43;4.93;;;;;;;22.45;60.27;99662.56;4916530;29;20044;-75
2021/07/19 03:01:50;;;;;;;7.40;5.75;;;;;;;22.39;60.52;99657.13;4899719;29;20068;-75
2021/07/19 03:04:19;;;;;;;4.50;4.10;;;;;;;22.38;60.51;99661.59;4916361;29;20052;-75
2021/07/19 03:06:49;;;;;;;5.75;5.15;;;;;;;22.44;60.50;99660.94;4916251;29;20048;-75
2021/07/19 03:09:19;;;;;;;9.13;5.05;;;;;;;22.49;60.37;99657.78;4915920;29;20167;-76
2021/07/19 03:11:49;;;;;;;5.32;4.57;;;;;;;22.48;60.18;99662.25;4899447;29;20044;-75
2021/07/19 03:14:22;;;;;;;6.00;4.80;;;;;;;22.54;59.81;99668.72;4916231;29;20079;-74
2021/07/19 03:16:55;;;;;;;6.00;5.35;;;;;;;22.64;59.55;99663.25;4916555;29;20092;-75
2021/07/19 03:19:25;;;;;;;4.57;4.18;;;;;;;22.69;59.45;99660.88;4916017;29;20071;-75
2021/07/19 03:21:56;;;;;;;5.90;4.93;;;;;;;22.57;60.20;99656.91;4916296;29;20048;-74
2021/07/19 03:24:45;;;;;;;9.18;4.28;;;;;;;22.63;59.60;99659.72;4908942;29;20099;-75
2021/07/19 03:27:15;;;;;;;5.65;4.07;;;;;;;22.67;59.79;99660.22;4916376;29;20561;-74
2021/07/19 03:29:45;;;;;;;7.22;4.78;;;;;;;22.78;59.23;99662.53;4898788;29;20060;-74
2021/07/19 03:32:20;;;;;;;6.22;5.63;;;;;;;22.66;59.37;99650.59;4899221;29;20140;-75
2021/07/19 03:34:53;;;;;;;6.63;5.70;;;;;;;22.74;59.34;99651.44;4899363;29;20503;-75
2021/07/19 03:37:22;;;;;;;6.75;4.32;;;;;;;22.86;59.05;99643.94;4899059;29;20464;-75
2021/07/19 03:39:51;;;;;;;6.00;5.43;;;;;;;22.89;58.96;99646.25;4899404;29;20063;-76
2021/07/19 03:42:21;;;;;;;5.80;4.65;;;;;;;22.58;60.20;99651.44;4915822;29;20499;-75
2021/07/19 03:44:52;;;;;;;5.55;4.80;;;;;;;22.79;59.36;99656.22;4916064;29;20108;-76
2021/07/19 03:47:22;;;;;;;4.95;4.45;;;;;;;22.82;58.89;99650.56;4915665;29;20052;-76
2021/07/19 03:49:54;;;;;;;7.03;4.93;;;;;;;22.82;58.41;99647.91;4916110;29;20062;-76
2021/07/19 03:52:23;;;;;;;6.22;4.80;;;;;;;23.06;57.98;99654.19;4915969;29;20072;-76
2021/07/19 03:54:51;;;;;;;6.60;4.25;;;;;;;22.99;58.48;99656.69;4899097;29;20044;-75
2021/07/19 03:57:19;;;;;;;6.22;5.22;;;;;;;22.97;59.33;99661.38;4898718;29;20040;-76
2021/07/19 03:59:48;;;;;;;5.90;5.30;;;;;;;23.11;58.25;99663.28;4899067;29;20051;-76
2021/07/19 04:02:24;;;;;;;5.40;4.60;;;;;;;23.13;58.43;99666.63;4899862;29;20040;-76
2021/07/19 04:05:03;;;;;;;5.65;5.15;;;;;;;23.25;58.09;99661.75;4919747;29;20049;-76
2021/07/19 04:07:37;;;;;;;9.07;4.47;;;;;;;23.07;58.73;99661.19;4902577;29;20049;-76
2021/07/19 04:10:14;;;;;;;7.07;4.97;;;;;;;23.19;57.83;99673.09;4902213;29;20083;-75
2021/07/19 04:12:50;;;;;;;8.43;4.93;;;;;;;23.44;57.56;99674.66;4902425;29;20514;-76
2021/07/19 04:15:24;;;;;;;4.88;4.38;;;;;;;23.29;58.33;99672.88;4901850;29;20123;-75
2021/07/19 04:17:52;;;;;;;6.07;4.65;;;;;;;23.15;58.41;99677.09;4895281;29;20048;-75
2021/07/19 04:20:27;;;;;;;6.03;5.20;;;;;;;23.14;58.84;99668.28;4907573;29;20063;-75
2021/07/19 04:22:55;;;;;;;6.03;4.80;;;;;;;23.20;58.64;99667.59;4914367;29;20048;-75
2021/07/19 04:25:23;;;;;;;5.38;4.97;;;;;;;23.29;58.36;99671.06;4918380;29;20047;-74
2021/07/19 04:27:50;;;;;;;9.05;4.55;;;;;;;23.32;57.99;99670.69;4917719;29;20122;-75
2021/07/19 04:30:20;;;;;;;5.00;4.50;;;;;;;23.36;57.97;99668.53;4901106;29;20063;-76
2021/07/19 04:32:52;;;;;;;6.20;5.32;;;;;;;23.41;57.54;99664.34;4917348;29;20048;-74
2021/07/19 04:35:21;;;;;;;4.88;4.43;;;;;;;23.37;57.69;99663.03;4918137;29;20104;-74
2021/07/19 04:37:52;;;;;;;6.65;5.20;;;;;;;23.40;58.01;99673.34;4916976;29;20100;-74
2021/07/19 04:40:23;;;;;;;42.35;13.73;;;;;;;23.50;58.64;99668.63;4901714;29;20040;-74
2021/07/19 04:42:55;;;;;;;5.63;4.85;;;;;;;23.60;57.33;99668.41;4902969;29;20080;-74
2021/07/19 04:45:22;;;;;;;5.75;4.45;;;;;;;23.57;57.59;99660.78;4919749;29;20408;-73
2021/07/19 04:47:50;;;;;;;6.45;5.88;;;;;;;23.54;57.87;99666.44;4918356;29;20281;-74
2021/07/19 04:50:19;;;;;;;6.63;4.88;;;;;;;23.55;57.93;99661.97;4901236;29;20385;-75
2021/07/19 04:53:09;;;;;;;12.85;5.30;;;;;;;23.58;58.15;99666.91;4913919;29;20515;-76
2021/07/19 04:55:40;;;;;;;7.43;4.75;;;;;;;23.56;57.66;99666.28;4918111;29;20547;-75
2021/07/19 04:58:08;;;;;;;8.57;4.45;;;;;;;23.65;57.21;99667.91;4918393;29;20470;-74
2021/07/19 05:00:39;;;;;;;10.32;4.95;;;;;;;23.74;56.74;99665.03;4901760;29;20450;-73
2021/07/19 05:03:09;;;;;;;4.45;3.92;;;;;;;23.72;56.64;99671.53;4918479;29;20052;-75
2021/07/19 05:05:39;;;;;;;9.45;4.25;;;;;;;23.80;56.68;99668.81;4918434;29;20171;-73
2021/07/19 05:08:07;;;;;;;9.63;5.55;;;;;;;23.92;56.65;99670.09;4918085;29;20055;-73
2021/07/19 05:10:35;;;;;;;11.27;6.35;;;;;;;23.82;58.39;99673.97;4917975;29;20050;-73
2021/07/19 05:13:02;;;;;;;7.80;4.57;;;;;;;23.76;58.83;99675.50;4917584;29;20100;-74
2021/07/19 05:15:29;;;;;;;9.13;5.32;;;;;;;23.89;57.78;99681.06;4918226;29;20048;-74
2021/07/19 05:17:57;;;;;;;6.80;4.15;;;;;;;24.00;57.57;99675.34;4918241;29;20083;-75
2021/07/19 05:20:23;;;;;;;41.05;6.53;;;;;;;24.26;56.31;99674.97;4916367;29;20174;-73
2021/07/19 05:22:55;;;;;;;34.42;5.75;;;;;;;24.46;56.19;99674.53;4919875;29;20060;-75
2021/07/19 05:25:26;;;;;;;10.35;4.55;;;;;;;24.71;55.76;99678.59;4919045;29;20067;-75
2021/07/19 05:28:04;;;;;;;13.40;5.55;;;;;;;25.00;55.10;99677.00;4918044;29;20092;-76
2021/07/19 05:30:31;;;;;;;7.78;6.10;;;;;;;25.25;54.11;99677.56;4917276;29;20133;-75
2021/07/19 05:32:58;;;;;;;6.53;5.25;;;;;;;25.44;53.41;99676.16;4917407;29;20103;-75
2021/07/19 05:35:25;;;;;;;6.68;5.38;;;;;;;25.67;52.55;99678.69;4917337;29;20040;-75
2021/07/19 05:37:52;;;;;;;8.80;5.10;;;;;;;25.76;52.63;99678.41;4917668;29;20036;-76
2021/07/19 05:40:20;;;;;;;9.35;4.90;;;;;;;25.91;52.88;99680.22;4917905;29;20088;-76
2021/07/19 05:42:47;;;;;;;8.90;5.47;;;;;;;25.89;52.83;99669.72;4917653;29;20036;-76
2021/07/19 05:45:15;;;;;;;6.65;5.35;;;;;;;26.11;52.17;99676.72;4918149;29;20051;-75
2021/07/19 05:47:43;;;;;;;9.48;5.18;;;;;;;26.39;51.69;99665.25;4917481;29;20048;-75
2021/07/19 05:50:11;;;;;;;12.43;5.03;;;;;;;26.54;50.51;99662.53;4917280;29;20052;-75
2021/07/19 05:52:38;;;;;;;6.95;4.93;;;;;;;26.60;49.71;99661.75;4916675;29;20120;-75
2021/07/19 05:55:06;;;;;;;4.50;3.80;;;;;;;26.63;48.93;99658.66;4917917;29;20136;-76
2021/07/19 05:57:34;;;;;;;4.20;3.30;;;;;;;26.77;48.99;99655.06;4916961;29;20563;-74
2021/07/19 06:00:01;;;;;;;11.65;4.25;;;;;;;26.86;47.39;99659.25;4917382;29;20052;-75
2021/07/19 06:02:29;;;;;;;4.10;3.70;;;;;;;26.98;47.33;99651.50;4916474;29;20071;-74
2021/07/19 06:04:56;;;;;;;6.72;4.07;;;;;;;27.10;46.43;99652.63;4917424;29;20492;-74
2021/07/19 06:07:23;;;;;;;3.65;3.20;;;;;;;27.02;46.50;99647.41;4917109;29;20040;-75
2021/07/19 06:09:50;;;;;;;13.52;3.80;;;;;;;27.01;45.83;99648.44;4896618;29;20095;-75
2021/07/19 06:12:17;;;;;;;5.10;3.50;;;;;;;27.09;46.28;99648.28;4912353;29;20063;-76
2021/07/19 06:14:44;;;;;;;4.50;3.67;;;;;;;27.21;45.80;99645.06;4915250;29;20119;-77
2021/07/19 06:17:13;;;;;;;4.93;3.22;;;;;;;27.12;44.67;99653.25;4912244;29;20541;-75
2021/07/19 06:19:40;;;;;;;8.88;3.30;;;;;;;27.22;45.58;99660.94;4912314;29;20751;-75
2021/07/19 06:22:10;;;;;;;3.67;3.25;;;;;;;27.27;45.28;99661.16;4910864;29;20693;-74
2021/07/19 06:24:37;;;;;;;3.83;3.30;;;;;;;27.21;45.27;99661.09;4913857;29;20060;-75
2021/07/19 06:27:05;;;;;;;7.22;3.63;;;;;;;27.34;44.63;99661.19;4914705;29;20087;-75
2021/07/19 06:29:33;;;;;;;4.78;3.63;;;;;;;27.41;44.39;99672.72;4910049;29;20047;-75
2021/07/19 06:32:01;;;;;;;3.42;3.13;;;;;;;27.43;45.28;99670.66;4916280;29;20523;-75
2021/07/19 06:34:28;;;;;;;10.57;3.20;;;;;;;27.51;43.47;99683.06;4916483;29;20041;-75
2021/07/19 06:36:56;;;;;;;5.05;3.47;;;;;;;27.74;43.74;99682.75;4916157;29;20135;-74
2021/07/19 06:39:23;;;;;;;4.20;3.10;;;;;;;27.62;43.29;99677.97;4912004;29;20036;-78
2021/07/19 06:41:50;;;;;;;8.93;7.20;;;;;;;26.94;50.55;99685.00;4913751;29;20180;-75
2021/07/19 06:44:17;;;;;;;8.63;6.53;;;;;;;26.67;52.16;99686.69;4916306;29;20449;-75
2021/07/19 06:46:44;;;;;;;7.35;5.60;;;;;;;26.50;53.12;99691.47;4915525;29;20166;-75
2021/07/19 06:49:10;;;;;;;6.57;5.70;;;;;;;26.99;52.07;99687.09;4915559;29;20054;-74
2021/07/19 06:51:37;;;;;;;6.97;5.55;;;;;;;26.47;52.46;99683.00;4915795;29;20440;-79
2021/07/19 06:54:04;;;;;;;6.15;5.07;;;;;;;27.05;50.86;99676.44;4915963;29;20040;-79
2021/07/19 06:56:32;;;;;;;7.47;4.80;;;;;;;27.10;49.97;99682.03;4916197;29;20070;-78
2021/07/19 06:59:01;;;;;;;6.07;4.88;;;;;;;27.18;50.09;99688.28;4911218;29;20045;-76
2021/07/19 07:01:28;;;;;;;9.73;5.75;;;;;;;26.57;53.24;99681.66;4915274;29;20036;-75
2021/07/19 07:03:55;;;;;;;6.65;5.85;;;;;;;26.72;53.93;99692.25;4915230;29;20051;-77
2021/07/19 07:06:27;;;;;;;10.55;7.60;;;;;;;26.11;55.15;99692.75;4915903;29;20048;-76
2021/07/19 07:08:55;;;;;;;10.10;6.80;;;;;;;26.09;55.13;99694.78;4911430;29;20246;-73
2021/07/19 07:11:22;;;;;;;11.68;8.15;;;;;;;26.05;54.58;99698.03;4914316;29;20091;-78
2021/07/19 07:13:49;;;;;;;7.15;6.45;;;;;;;26.26;53.97;99702.53;4915042;29;20044;-76
2021/07/19 07:16:16;;;;;;;12.55;6.13;;;;;;;25.94;55.43;99701.19;4914728;29;20036;-77
2021/07/19 07:18:43;;;;;;;9.15;6.10;;;;;;;26.05;55.08;99701.53;4908203;29;20074;-78
2021/07/19 07:21:10;;;;;;;9.73;6.80;;;;;;;26.33;54.62;99695.41;4913374;29;20074;-81
2021/07/19 07:23:37;;;;;;;8.68;6.82;;;;;;;26.25;54.48;99698.22;4915280;29;20055;-81
2021/07/19 07:26:04;;;;;;;9.50;7.05;;;;;;;26.22;54.05;99693.25;4907882;29;20044;-82
2021/07/19 07:28:32;;;;;;;12.38;6.20;;;;;;;26.11;54.14;99698.09;4911729;29;20048;-79
2021/07/19 07:30:59;;;;;;;13.20;6.78;;;;;;;25.95;54.50;99703.69;4895468;29;20083;-78
2021/07/19 07:33:26;;;;;;;12.20;6.20;;;;;;;26.30;53.73;99695.78;4909925;29;20044;-79
2021/07/19 07:35:53;;;;;;;10.60;6.38;;;;;;;26.56;52.80;99704.06;4912644;29;20047;-81
2021/07/19 07:38:20;;;;;;;7.00;6.30;;;;;;;26.48;53.10;99703.41;4916871;29;20063;-80
2021/07/19 07:40:48;;;;;;;10.43;5.90;;;;;;;26.09;53.41;99702.78;4916142;29;20076;-79
2021/07/19 07:43:15;;;;;;;9.13;6.65;;;;;;;26.41;53.22;99697.94;4914945;29;20057;-78
2021/07/19 07:45:42;;;;;;;7.55;6.18;;;;;;;26.52;52.42;99705.47;4910575;29;20127;-82
2021/07/19 07:48:09;;;;;;;10.63;6.00;;;;;;;26.38;52.76;99704.50;4912245;29;20073;-78
2021/07/19 07:50:36;;;;;;;10.45;6.55;;;;;;;26.56;52.84;99711.25;4917412;29;20054;-77
2021/07/19 07:53:03;;;;;;;8.80;7.50;;;;;;;26.59;52.09;99706.38;4916862;29;20135;-79
2021/07/19 07:55:30;;;;;;;12.02;7.25;;;;;;;26.62;53.07;99705.97;4915167;29;20059;-78
2021/07/19 07:57:57;;;;;;;10.70;9.60;;;;;;;26.50;53.46;99704.03;4910621;29;20036;-78
2021/07/19 08:00:24;;;;;;;11.68;8.95;;;;;;;26.39;53.28;99705.34;4915279;29;20040;-78
2021/07/19 08:02:51;;;;;;;12.70;7.72;;;;;;;26.63;53.04;99701.44;4912521;29;20054;-80
2021/07/19 08:05:18;;;;;;;9.45;7.30;;;;;;;26.74;52.05;99702.75;4916275;29;20135;-80
2021/07/19 08:07:45;;;;;;;7.93;6.97;;;;;;;26.65;52.12;99710.13;4913182;29;20044;-79
2021/07/19 08:10:13;;;;;;;16.88;7.60;;;;;;;26.42;52.48;99704.16;4897991;29;20048;-78
2021/07/19 08:12:43;;;;;;;10.45;6.80;;;;;;;26.56;52.24;99706.75;4913855;29;20458;-78
2021/07/19 08:15:14;;;;;;;12.10;7.38;;;;;;;26.68;51.91;99709.72;4911754;29;20052;-78
2021/07/19 08:17:41;;;;;;;8.95;6.00;;;;;;;26.50;52.47;99702.16;4913580;29;20089;-78
2021/07/19 08:20:09;;;;;;;9.95;7.05;;;;;;;26.36;52.55;99706.53;4911795;29;20047;-78
2021/07/19 08:22:36;;;;;;;9.40;7.32;;;;;;;26.68;51.88;99709.72;4912167;29;20536;-77
2021/07/19 08:25:04;;;;;;;9.70;5.88;;;;;;;26.75;51.44;99704.44;4915143;29;20040;-78
2021/07/19 08:27:34;;;;;;;9.88;6.35;;;;;;;26.92;50.85;99705.78;4895095;29;20052;-77
2021/07/19 08:30:04;;;;;;;7.90;6.85;;;;;;;26.98;51.00;99699.66;4910708;29;20052;-81
2021/07/19 08:32:31;;;;;;;10.38;7.25;;;;;;;26.85;50.13;99710.28;4913996;29;20067;-80
2021/07/19 08:34:58;;;;;;;9.70;7.32;;;;;;;26.85;50.30;99699.56;4915748;29;20563;-78
2021/07/19 08:37:26;;;;;;;8.98;7.18;;;;;;;26.68;50.13;99712.38;4914543;29;20042;-78
2021/07/19 08:39:54;;;;;;;10.10;6.35;;;;;;;26.83;49.90;99706.94;4914424;29;20083;-79
2021/07/19 08:42:21;;;;;;;11.57;7.32;;;;;;;26.73;49.89;99706.47;4915277;29;20052;-80
2021/07/19 08:44:48;;;;;;;12.48;7.18;;;;;;;26.74;49.89;99705.44;4914971;29;20071;-80
2021/07/19 08:47:15;;;;;;;11.30;6.13;;;;;;;26.90;50.01;99702.50;4896439;29;20048;-80
2021/07/19 08:49:43;;;;;;;8.60;5.85;;;;;;;27.02;49.58;99700.91;4910073;29;20040;-80
2021/07/19 08:52:15;;;;;;;11.93;7.13;;;;;;;27.08;48.87;99699.31;4909728;29;20156;-78
2021/07/19 08:54:47;;;;;;;9.05;5.95;;;;;;;27.26;48.65;99688.09;4910045;29;20389;-79
2021/07/19 08:57:16;;;;;;;5.70;5.10;;;;;;;27.25;48.52;99694.47;4912741;29;20087;-82
2021/07/19 08:59:47;;;;;;;13.55;5.97;;;;;;;27.18;48.62;99694.44;4912042;29;20036;-81
2021/07/19 09:02:14;;;;;;;8.45;6.05;;;;;;;27.23;48.69;99693.88;4915637;29;20078;-81
2021/07/19 09:04:42;;;;;;;7.25;5.30;;;;;;;27.24;48.38;99688.31;4914644;29;20948;-81
2021/07/19 09:07:11;;;;;;;12.23;5.22;;;;;;;27.32;48.14;99684.63;4898601;29;20040;-80
2021/07/19 09:09:42;;;;;;;8.32;5.45;;;;;;;27.39;47.02;99690.84;4913549;29;20047;-79
2021/07/19 09:12:09;;;;;;;8.30;5.78;;;;;;;27.34;48.19;99679.91;4913780;29;20086;-80
2021/07/19 09:14:40;;;;;;;5.25;4.75;;;;;;;27.38;47.89;99683.84;4915194;29;20039;-78
2021/07/19 09:17:23;;;;;;;5.88;4.88;;;;;;;27.40;47.64;99684.47;4914455;29;20084;-81
2021/07/19 09:19:51;;;;;;;5.32;4.30;;;;;;;27.54;45.69;99690.69;4915333;29;20119;-78
2021/07/19 09:22:25;;;;;;;5.93;4.53;;;;;;;27.43;46.50;99692.09;4895488;29;20088;-80
2021/07/19 09:25:03;;;;;;;9.02;4.70;;;;;;;27.44;47.10;99683.06;4898608;29;20456;-80
2021/07/19 09:27:30;;;;;;;5.55;4.30;;;;;;;27.58;45.29;99689.25;4908433;29;20036;-78
2021/07/19 09:30:16;;;;;;;4.93;4.35;;;;;;;27.77;43.38;99693.09;4911631;29;20048;-82
2021/07/19 09:32:53;;;;;;;5.45;4.28;;;;;;;27.67;44.99;99694.25;4916644;29;20060;-81
2021/07/19 09:35:20;;;;;;;8.93;4.78;;;;;;;27.68;45.81;99693.22;4915753;29;20048;-78
2021/07/19 09:37:47;;;;;;;5.35;4.88;;;;;;;27.77;45.64;99687.72;4914915;29;20044;-77
2021/07/19 09:40:14;;;;;;;16.77;5.38;;;;;;;27.93;44.56;99687.34;4915691;29;20048;-80
2021/07/19 09:42:42;;;;;;;10.10;4.03;;;;;;;27.84;43.86;99688.56;4915120;29;20127;-77
2021/07/19 09:45:21;;;;;;;7.47;4.45;;;;;;;27.93;43.90;99682.81;4916146;29;20488;-77
2021/07/19 09:47:48;;;;;;;8.15;4.82;;;;;;;27.91;43.28;99686.72;4916818;29;20056;-78
2021/07/19 09:50:18;;;;;;;6.57;4.45;;;;;;;27.75;43.36;99689.75;4898142;29;20369;-81
2021/07/19 09:52:45;;;;;;;12.15;5.28;;;;;;;27.91;43.75;99684.03;4915774;29;20044;-75
2021/07/19 09:55:21;;;;;;;6.85;3.70;;;;;;;27.85;43.21;99679.50;4916906;29;20072;-78
2021/07/19 09:57:56;;;;;;;9.23;4.32;;;;;;;27.99;43.71;99681.19;4920924;29;20059;-79
2021/07/19 10:00:24;;;;;;;6.57;4.15;;;;;;;28.06;42.51;99684.69;4920263;29;20036;-76
2021/07/19 10:02:51;;;;;;;10.77;4.70;;;;;;;28.01;42.53;99684.47;4925194;29;20127;-76
2021/07/19 10:05:27;;;;;;;5.97;4.00;;;;;;;28.07;44.21;99681.00;4916459;29;20048;-75
2021/07/19 10:07:55;;;;;;;5.93;3.72;;;;;;;28.07;40.85;99677.47;4917163;29;20064;-75
2021/07/19 10:10:32;;;;;;;9.63;3.85;;;;;;;28.17;41.36;99673.34;4922950;29;20042;-77
2021/07/19 10:13:02;;;;;;;8.63;3.78;;;;;;;28.08;40.98;99663.88;4921859;29;20091;-77
2021/07/19 10:15:31;;;;;;;14.80;4.65;;;;;;;28.53;40.09;99671.34;4918315;29;20456;-79
2021/07/19 10:18:02;;;;;;;9.90;4.20;;;;;;;28.65;39.35;99665.13;4915605;29;20044;-78
2021/07/19 10:20:29;;;;;;;6.40;4.15;;;;;;;28.48;38.63;99663.91;4917781;29;20044;-78
2021/07/19 10:22:57;;;;;;;14.10;4.35;;;;;;;28.42;41.27;99667.44;4915428;29;20062;-77
2021/07/19 10:25:24;;;;;;;6.78;4.60;;;;;;;28.57;38.09;99665.38;4913688;29;20048;-82
2021/07/19 10:27:51;;;;;;;6.70;4.13;;;;;;;28.55;38.88;99669.28;4915406;29;20079;-81
2021/07/19 10:30:18;;;;;;;14.48;4.07;;;;;;;28.49;40.55;99662.88;4915805;29;20104;-76
2021/07/19 10:32:45;;;;;;;4.32;3.45;;;;;;;28.41;38.32;99665.78;4915170;29;20039;-78
2021/07/19 10:35:14;;;;;;;5.97;3.30;;;;;;;28.59;38.03;99662.47;4915911;29;20150;-81
2021/07/19 10:37:44;;;;;;;5.53;3.65;;;;;;;28.42;40.93;99660.22;4914719;29;20123;-78
2021/07/19 10:40:16;;;;;;;3.38;3.05;;;;;;;28.63;36.28;99661.03;4916035;29;20072;-79
2021/07/19 10:42:43;;;;;;;5.80;3.88;;;;;;;28.67;37.38;99662.28;4913270;29;20044;-81
2021/07/19 10:45:12;;;;;;;5.40;3.55;;;;;;;28.41;37.70;99658.56;4915534;29;20534;-81
2021/07/19 10:47:52;;;;;;;8.43;3.72;;;;;;;28.66;37.19;99661.44;4914686;29;20411;-81
2021/07/19 10:50:27;;;;;;;5.60;4.05;;;;;;;28.86;37.69;99657.88;4915007;29;20044;-80
2021/07/19 10:52:56;;;;;;;7.38;3.67;;;;;;;28.90;39.19;99651.06;4913953;29;20075;-78
2021/07/19 10:55:31;;;;;;;7.15;3.90;;;;;;;28.97;37.03;99654.59;4912000;29;20044;-82
2021/07/19 10:58:06;;;;;;;4.75;3.95;;;;;;;28.64;40.25;99651.94;4915672;29;20083;-80
2021/07/19 11:00:39;;;;;;;8.32;4.05;;;;;;;28.55;39.63;99655.88;4904991;29;20166;-80
2021/07/19 11:03:12;;;;;;;6.00;3.53;;;;;;;28.81;36.59;99657.69;4895539;29;20063;-77
2021/07/19 11:05:44;;;;;;;4.95;3.95;;;;;;;28.80;36.24;99648.00;4912243;29;20043;-83
2021/07/19 11:08:25;;;;;;;9.25;3.63;;;;;;;29.14;35.56;99653.13;4915648;29;20103;-79
2021/07/19 11:10:56;;;;;;;5.95;3.58;;;;;;;28.81;36.17;99646.97;4915795;29;20052;-78
2021/07/19 11:13:34;;;;;;;14.10;5.40;;;;;;;28.64;38.91;99652.78;4915355;29;20040;-77
2021/07/19 11:16:14;;;;;;;4.00;3.60;;;;;;;28.63;38.86;99640.41;4915137;29;20048;-78
2021/07/19 11:18:56;;;;;;;6.78;3.35;;;;;;;28.63;38.81;99643.09;4914949;29;20044;-80
2021/07/19 11:21:26;;;;;;;7.00;4.15;;;;;;;28.82;36.10;99637.91;4915123;29;20060;-79
2021/07/19 11:23:53;;;;;;;8.07;3.78;;;;;;;28.87;37.00;99632.72;4913475;29;20056;-77
2021/07/19 11:26:23;;;;;;;9.38;4.28;;;;;;;28.78;38.59;99634.81;4915471;29;20427;-76
2021/07/19 11:28:55;;;;;;;5.07;4.10;;;;;;;29.05;35.30;99635.59;4914925;29;20062;-78
2021/07/19 11:31:30;;;;;;;7.15;3.67;;;;;;;29.16;36.11;99640.28;4914926;29;20502;-76
2021/07/19 11:34:03;;;;;;;9.57;3.85;;;;;;;29.12;36.57;99633.69;4904593;29;20503;-78
2021/07/19 11:36:47;;;;;;;8.47;4.37;;;;;;;29.38;35.53;99632.78;4916086;29;20066;-78
2021/07/19 11:39:19;;;;;;;7.25;4.35;;;;;;;29.06;38.08;99623.81;4913374;29;20050;-77
2021/07/19 11:41:58;;;;;;;9.20;3.83;;;;;;;29.08;36.32;99623.59;4912924;29;20559;-81
2021/07/19 11:44:27;;;;;;;9.18;4.18;;;;;;;29.21;36.66;99627.06;4909500;29;20048;-83